| time (UTC) | temp F | wind direction | speed MPH | gust MPH | rain 1hr in | rain 24hr in | rain mn in | humidity % | barometer mb |
| 20260506102028 | 69 | 145 | 2.0 | 8.0 | 0.00 | 0.08 | 0.00 | 61 | 1001.8 |
| 20260506101034 | 68 | 145 | 2.0 | 7.0 | 0.00 | 0.08 | 0.00 | 62 | 1001.8 |
| 20260506100114 | 68 | 145 | 3.0 | 7.0 | 0.00 | 0.08 | 0.00 | 61 | 1001.8 |
| 20260506095027 | 68 | 145 | 2.0 | 6.0 | 0.00 | 0.08 | 0.00 | 62 | 1001.7 |
| 20260506094035 | 67 | 145 | 3.0 | 9.0 | 0.00 | 0.08 | 0.00 | 63 | 1001.7 |
| 20260506093033 | 67 | 145 | 4.0 | 10.0 | 0.00 | 0.08 | 0.00 | 63 | 1001.6 |
| 20260506092035 | 66 | 145 | 2.0 | 9.0 | 0.00 | 0.08 | 0.00 | 65 | 1001.7 |
| 20260506091043 | 65 | 144 | 1.0 | 6.0 | 0.00 | 0.08 | 0.00 | 65 | 1001.7 |
| 20260506090042 | 65 | 144 | 3.0 | 8.0 | 0.00 | 0.08 | 0.00 | 66 | 1001.7 |
| 20260506085038 | 64 | 144 | 4.0 | 10.0 | 0.00 | 0.08 | 0.00 | 66 | 1001.7 |
| 20260506084028 | 64 | 144 | 2.0 | 12.0 | 0.00 | 0.08 | 0.00 | 65 | 1001.7 |
| 20260506082036 | 64 | 146 | 4.0 | 12.0 | 0.00 | 0.08 | 0.00 | 64 | 1001.9 |
| 20260506081043 | 65 | 144 | 5.0 | 8.0 | 0.00 | 0.08 | 0.00 | 63 | 1001.6 |
| 20260506073025 | 61 | 143 | 1.0 | 7.0 | 0.00 | 0.08 | 0.00 | 69 | 1001.5 |
| 20260506072043 | 60 | 143 | 5.0 | 9.0 | 0.00 | 0.08 | 0.00 | 70 | 1001.4 |
| 20260506071030 | 59 | 143 | 2.0 | 7.0 | 0.00 | 0.08 | 0.00 | 71 | 1001.5 |
| 20260506062037 | 57 | 143 | 2.0 | 7.0 | 0.00 | 0.08 | 0.00 | 76 | 1002.1 |
| 20260506061028 | 57 | 143 | 3.0 | 7.0 | 0.00 | 0.08 | 0.00 | 75 | 1002.2 |
| 20260506051032 | 54 | 143 | 1.0 | 3.0 | 0.00 | 0.08 | 0.00 | 80 | 1002.8 |
| 20260506045025 | 53 | 143 | 0.0 | 5.0 | 0.00 | 0.08 | 0.00 | 82 | 1002.7 |
| 20260506044032 | 52 | 143 | 1.0 | 6.0 | 0.00 | 0.08 | 0.00 | 83 | 1002.9 |
| 20260506043035 | 52 | 143 | 2.0 | 5.0 | 0.00 | 0.08 | 0.00 | 84 | 1002.8 |
| 20260506042035 | 52 | 143 | 1.0 | 5.0 | 0.00 | 0.08 | 0.00 | 84 | 1002.8 |
| 20260506041040 | 52 | 143 | 0.0 | 4.0 | 0.00 | 0.08 | 0.02 | 85 | 1003.2 |
| 20260506040038 | 51 | 143 | 1.0 | 3.0 | 0.00 | 0.08 | 0.02 | 86 | 1003.2 |
| 20260506035040 | 51 | 143 | 1.0 | 4.0 | 0.00 | 0.08 | 0.02 | 87 | 1003.2 |
| 20260506034025 | 51 | 143 | 1.0 | 3.0 | 0.00 | 0.08 | 0.02 | 87 | 1003.3 |
| 20260506033025 | 50 | 143 | 1.0 | 3.0 | 0.00 | 0.08 | 0.02 | 87 | 1003.3 |
| 20260506032042 | 50 | 143 | 1.0 | 3.0 | 0.00 | 0.08 | 0.02 | 88 | 1003.4 |
| 20260506031029 | 50 | 143 | 1.0 | 3.0 | 0.00 | 0.08 | 0.02 | 88 | 1003.6 |
| 20260506030026 | 50 | 143 | 0.0 | 2.0 | 0.00 | 0.08 | 0.02 | 88 | 1003.6 |
| 20260506025026 | 50 | 143 | 1.0 | 2.0 | 0.00 | 0.08 | 0.02 | 89 | 1003.7 |
| 20260506024031 | 50 | 143 | 1.0 | 3.0 | 0.00 | 0.08 | 0.02 | 89 | 1003.7 |
| 20260506023044 | 50 | 143 | 1.0 | 3.0 | 0.00 | 0.08 | 0.02 | 89 | 1003.7 |
| 20260506022040 | 50 | 143 | 0.0 | 1.0 | 0.00 | 0.08 | 0.02 | 89 | 1003.9 |
| 20260506021030 | 50 | 143 | 0.0 | 2.0 | 0.00 | 0.08 | 0.02 | 89 | 1004.0 |
| 20260506020025 | 50 | 143 | 1.0 | 2.0 | 0.00 | 0.08 | 0.02 | 89 | 1004.1 |
| 20260506015039 | 51 | 143 | 1.0 | 2.0 | 0.00 | 0.08 | 0.02 | 88 | 1004.3 |
| 20260506014026 | 51 | 143 | 1.0 | 2.0 | 0.00 | 0.08 | 0.02 | 88 | 1004.3 |
| 20260506013025 | 51 | 143 | 0.0 | 1.0 | 0.00 | 0.08 | 0.02 | 87 | 1004.4 |
| 20260506012026 | 51 | 143 | 0.0 | 1.0 | 0.00 | 0.08 | 0.02 | 87 | 1004.5 |
| 20260506011032 | 52 | 143 | 0.0 | 3.0 | 0.00 | 0.08 | 0.02 | 87 | 1004.6 |
| 20260506005042 | 52 | 143 | 0.0 | 1.0 | 0.00 | 0.08 | 0.02 | 85 | 1004.5 |
| 20260506004029 | 52 | 143 | 1.0 | 4.0 | 0.00 | 0.08 | 0.02 | 85 | 1004.5 |
| 20260506003026 | 53 | 143 | 0.0 | 1.0 | 0.00 | 0.08 | 0.02 | 84 | 1004.4 |
| 20260506002024 | 53 | 143 | 0.0 | 1.0 | 0.00 | 0.08 | 0.02 | 84 | 1004.5 |
| 20260506001025 | 53 | 143 | 0.0 | 1.0 | 0.00 | 0.08 | 0.02 | 84 | 1004.5 |
| 20260506000024 | 53 | 143 | 0.0 | 1.0 | 0.00 | 0.08 | 0.02 | 84 | 1004.5 |
| 20260505235040 | 53 | 143 | 0.0 | 1.0 | 0.00 | 0.08 | 0.02 | 84 | 1004.5 |
| 20260505234033 | 53 | 143 | 0.0 | 1.0 | 0.00 | 0.08 | 0.02 | 83 | 1004.5 |
| 20260505233030 | 53 | 143 | 0.0 | 1.0 | 0.00 | 0.08 | 0.02 | 83 | 1004.6 |
| 20260505232031 | 53 | 143 | 0.0 | 1.0 | 0.00 | 0.08 | 0.02 | 82 | 1004.6 |
| 20260505231036 | 53 | 143 | 0.0 | 1.0 | 0.00 | 0.08 | 0.02 | 82 | 1004.6 |
| 20260505230033 | 53 | 143 | 0.0 | 1.0 | 0.00 | 0.08 | 0.02 | 81 | 1004.7 |
| 20260505225036 | 53 | 143 | 0.0 | 1.0 | 0.00 | 0.08 | 0.02 | 81 | 1004.6 |
| 20260505224044 | 54 | 143 | 0.0 | 1.0 | 0.00 | 0.08 | 0.02 | 80 | 1004.7 |
| 20260505223024 | 54 | 143 | 0.0 | 1.0 | 0.00 | 0.08 | 0.02 | 79 | 1004.7 |
| 20260505222039 | 54 | 143 | 0.0 | 1.0 | 0.00 | 0.08 | 0.02 | 79 | 1004.8 |
| 20260505221043 | 54 | 143 | 0.0 | 1.0 | 0.00 | 0.08 | 0.02 | 78 | 1004.8 |
| 20260505220043 | 55 | 143 | 0.0 | 1.0 | 0.00 | 0.08 | 0.02 | 77 | 1004.9 |
| 20260505215041 | 55 | 143 | 0.0 | 1.0 | 0.00 | 0.08 | 0.02 | 77 | 1004.8 |
| 20260505214028 | 55 | 143 | 0.0 | 1.0 | 0.00 | 0.08 | 0.02 | 76 | 1004.9 |
| 20260505213027 | 55 | 143 | 0.0 | 2.0 | 0.00 | 0.08 | 0.02 | 76 | 1004.9 |
| 20260505212029 | 55 | 143 | 0.0 | 1.0 | 0.00 | 0.08 | 0.02 | 75 | 1005.0 |
| 20260505211037 | 56 | 143 | 0.0 | 2.0 | 0.00 | 0.08 | 0.02 | 75 | 1005.1 |
| 20260505210033 | 56 | 143 | 0.0 | 1.0 | 0.00 | 0.08 | 0.02 | 74 | 1005.2 |
| 20260505205030 | 56 | 143 | 0.0 | 1.0 | 0.00 | 0.08 | 0.02 | 74 | 1005.0 |
| 20260505204037 | 56 | 143 | 0.0 | 1.0 | 0.00 | 0.08 | 0.02 | 74 | 1005.1 |
| 20260505203116 | 56 | 143 | 0.0 | 3.0 | 0.00 | 0.08 | 0.02 | 74 | 1005.2 |
| 20260505202033 | 56 | 143 | 0.0 | 2.0 | 0.00 | 0.08 | 0.02 | 73 | 1005.2 |
| 20260505201041 | 56 | 143 | 0.0 | 2.0 | 0.00 | 0.08 | 0.02 | 72 | 1005.1 |
| 20260505200041 | 56 | 143 | 0.0 | 3.0 | 0.00 | 0.08 | 0.02 | 71 | 1005.0 |
| 20260505195038 | 56 | 143 | 1.0 | 3.0 | 0.00 | 0.08 | 0.02 | 71 | 1005.0 |
| 20260505194045 | 56 | 143 | 0.0 | 3.0 | 0.00 | 0.08 | 0.02 | 71 | 1005.1 |
| 20260505193024 | 56 | 143 | 0.0 | 3.0 | 0.00 | 0.08 | 0.02 | 71 | 1005.2 |
| 20260505192041 | 56 | 143 | 1.0 | 3.0 | 0.00 | 0.08 | 0.02 | 71 | 1005.2 |
| 20260505191027 | 56 | 143 | 0.0 | 3.0 | 0.00 | 0.08 | 0.02 | 70 | 1005.2 |
| 20260505190044 | 57 | 143 | 1.0 | 4.0 | 0.00 | 0.08 | 0.02 | 69 | 1005.3 |
| 20260505185038 | 58 | 143 | 0.0 | 5.0 | 0.00 | 0.08 | 0.02 | 68 | 1005.4 |
| 20260505184027 | 58 | 143 | 1.0 | 3.0 | 0.00 | 0.08 | 0.02 | 68 | 1005.2 |
| 20260505183024 | 58 | 143 | 0.0 | 2.0 | 0.00 | 0.08 | 0.02 | 67 | 1005.2 |
| 20260505182044 | 58 | 143 | 1.0 | 4.0 | 0.00 | 0.08 | 0.02 | 67 | 1004.9 |
| 20260505181028 | 59 | 143 | 1.0 | 4.0 | 0.00 | 0.08 | 0.02 | 66 | 1005.0 |
| 20260505180031 | 59 | 143 | 1.0 | 6.0 | 0.00 | 0.08 | 0.02 | 66 | 1004.9 |
| 20260505175029 | 59 | 143 | 1.0 | 5.0 | 0.00 | 0.08 | 0.02 | 66 | 1004.8 |
| 20260505174036 | 59 | 143 | 1.0 | 4.0 | 0.00 | 0.08 | 0.02 | 66 | 1004.9 |
| 20260505173034 | 59 | 143 | 1.0 | 3.0 | 0.00 | 0.08 | 0.02 | 65 | 1004.9 |
| 20260505172029 | 60 | 143 | 1.0 | 5.0 | 0.00 | 0.08 | 0.02 | 64 | 1005.2 |
| 20260505171040 | 61 | 143 | 2.0 | 5.0 | 0.00 | 0.08 | 0.02 | 62 | 1005.1 |
| 20260505170038 | 62 | 143 | 0.0 | 7.0 | 0.00 | 0.08 | 0.02 | 61 | 1004.9 |
| 20260505165033 | 63 | 143 | 1.0 | 6.0 | 0.00 | 0.08 | 0.02 | 61 | 1004.9 |
| 20260505164041 | 64 | 143 | 1.0 | 5.0 | 0.00 | 0.08 | 0.02 | 61 | 1004.8 |
| 20260505163032 | 65 | 143 | 1.0 | 6.0 | 0.00 | 0.08 | 0.02 | 62 | 1004.8 |
| 20260505162026 | 65 | 143 | 1.0 | 5.0 | 0.00 | 0.08 | 0.02 | 61 | 1004.8 |
| 20260505161033 | 66 | 143 | 1.0 | 5.0 | 0.00 | 0.08 | 0.02 | 61 | 1004.8 |
| 20260505153030 | 70 | 143 | 1.0 | 5.0 | 0.00 | 0.08 | 0.02 | 61 | 1004.7 |
| 20260505152025 | 71 | 143 | 1.0 | 5.0 | 0.00 | 0.08 | 0.02 | 62 | 1004.8 |
| 20260505151034 | 71 | 144 | 0.0 | 5.0 | 0.00 | 0.08 | 0.02 | 62 | 1004.7 |
| 20260505125027 | 75 | 143 | 0.0 | 1.0 | 0.08 | 0.08 | 0.02 | 71 | 1005.5 |
| 20260505124031 | 75 | 143 | 0.0 | 1.0 | 0.04 | 0.04 | 0.01 | 65 | 1005.6 |
| 20260505123029 | 77 | 143 | 0.0 | 1.0 | 0.00 | 0.00 | 0.00 | 57 | 1005.7 |
| 20260505122031 | 77 | 143 | 0.0 | 3.0 | 0.00 | 0.00 | 0.00 | 53 | 1005.5 |
| 20260505121037 | 78 | 143 | 0.0 | 1.0 | 0.00 | 0.00 | 0.00 | 51 | 1005.7 |
| 20260505120034 | 79 | 143 | 0.0 | 2.0 | 0.00 | 0.00 | 0.00 | 50 | 1005.7 |
| 20260505115032 | 80 | 143 | 0.0 | 2.0 | 0.00 | 0.00 | 0.00 | 50 | 1005.8 |
| 20260505114038 | 80 | 143 | 2.0 | 5.0 | 0.00 | 0.00 | 0.00 | 48 | 1005.7 |
| 20260505113040 | 79 | 143 | 0.0 | 3.0 | 0.00 | 0.00 | 0.00 | 52 | 1005.9 |
| 20260505112038 | 76 | 143 | 0.0 | 3.0 | 0.00 | 0.00 | 0.00 | 56 | 1006.0 |
| 20260505111024 | 73 | 143 | 0.0 | 4.0 | 0.00 | 0.00 | 0.00 | 62 | 1006.1 |